LiveATC.Net - Listen to live air traffic control over the Internet!


ICAO: X36  IATA: X36   Airport: Buchan Airport
City: Englewood   State/Province: Florida
Country: United States   Continent: North America
KVNC METAR Weather: KVNC 271755Z AUTO VRB07G13KT 140V250 10SM CLR 32/28 A3004 RMK AO2
X36 ADS-B Flight Tracking  (ADSBExchange)
X36 Flight Activity (FlightAware)

X36 CTAF
Feed Status: UP   Listeners: 0
Listen in your browser - HTML5 player (in browser, HTML5)
Click here to listen with your own player (launches your MP3 player)
Archive Access: X36 CTAF
FacilityFrequency
Buchan CTAF122.900

NOTICE

Unauthorized use prohibited. See LiveATC.net Terms of Service


Airport/ARTCC Code
Frequency Search
(e.g., 124.400, 128.75)
Site-wide search
 


Browse Feeds
Top 50 Feeds
HF Oceanic Feeds
Coverage Map
Bad Weather Areas

LiveATC FAQ

Increase Coverage

Contact LiveATC.net
Press Inquiries

LiveATC on iPhone
LiveATC on Android

LiveATC Mobile
(Mobile browser)

ATC Audio Archives
Interesting Recordings

LiveATC Forums


Home Page
About LiveATC.net


Terms of Use
Privacy Policy

AIRMETs/SIGMETs

FAA Airport Status
NAS Status
Arrival Demand


Server Software By:
Icecast.org
Liquidsoap